Terminal Aerodrome Forecast
Issued by NWS Charleston, WV

Current Version | Previous Version | Text Only | Print | Product List | Glossary Off
Versions: 1 2 3 4 5 6 7 8 9 10 11 12 13 14 15 16 17 18 19 20 21 22 23 24

000
FTUS41 KRLX 252000 AAA
TAFPKB
TAF AMD
KPKB 252010Z 2520/2618 07008KT 6SM -RA SCT035 OVC060
     FM252030 06008KT 5SM -RA BR BKN020 OVC035
     FM252300 03008G14KT 6SM -SHRA OVC020
     FM260200 02007KT P6SM OVC025
     FM260900 02007KT P6SM BKN045=

USA.gov is the U.S. government's official web portal to all federal, state and local government web resources and services.